Airfield :







YOU CAN JOIN US ON...

 
LOGIN :

Register | Disclaimer

   EN    FR    IT 

 









Legend :    VFR   Marginal VFR   IFR   Intensive IFR   Very Intensive IFR
Visi :
Ceiling :
>= 8 km
>= 3000ft
5 to 8 km
1000 to 3000 ft
1500m to 5 km
500 to 1000 ft
800 to 1500m
200 to 500 ft
< 800m
< 200 ft
Symbols :   Thunderstorms  Fog  Heavy snow  Heavy precipitations  Wind > 20 kt






- Airport Elevation : 603 ft
- IATA code : LEB


KLEB - Lebanon Municipal

CURRENT METAR :
  • 200817Z AUTO 00000KT 1 3/4SM BR OVC001 11/09 A2987 RMK AO2 T01110094

EXPIRED METARs :
  • 200757Z AUTO 23003KT 1 3/4SM BR OVC001 11/09 A2985 RMK AO2 T01110094
  • 200753Z AUTO 22004KT 3SM BR OVC001 12/09 A2986 RMK AO2 SLP108 T01170094
  • 200703Z AUTO 00000KT 10SM OVC001 12/09 A2984 RMK AO2 T01170094
  • 200653Z AUTO 00000KT 10SM OVC002 12/09 A2984 RMK AO2 SLP103 T01170094
  • 200650Z AUTO 00000KT 10SM OVC002 12/09 A2984 RMK AO2
  • 200633Z AUTO 00000KT 10SM BKN001 OVC008 12/09 A2984 RMK AO2 T01170094
  • 200553Z AUTO 00000KT 10SM BKN004 OVC009 12/09 A2983 RMK AO2 SLP098 60000 T01170094 10117 20111 53015

TAF KLEB
Valid from the 20 at 07:00 until the 21 at 06:00 UTC


200658Z 2007/2106 00000KT P6SM OVC002
FM200800 00000KT 1/4SM FG VV002
FM201300 18010KT P6SM SCT050 OVC100
FM210400 18005KT P6SM OVC010
KZBW FIR / North America



MET'MAP, your aeronautical weather chart ! - Copyright ORBIFLY December 2007 - Disclaimer

ORBIFLY MET'MAP TEAM :

Programming & Development : Alexandra Zaïnal
Original concept : Baudouin d'Aumeries
Technical & hardware support : Manuel Goepfert
Assistance : Marc-Olivier Méhu

Contact : metmap@orbifly.com




SOURCES & CREDITS :

   NOAA